sensor_id;sensor_type;location;lat;lon;timestamp;P1;durP1;ratioP1;P2;durP2;ratioP2
10041;SDS011;5061;49.068;12.058;2022-10-23T00:02:12;5.53;;;4.60;;
10041;SDS011;5061;49.068;12.058;2022-10-23T00:05:32;4.93;;;4.30;;
10041;SDS011;5061;49.068;12.058;2022-10-23T00:08:53;4.93;;;4.43;;
10041;SDS011;5061;49.068;12.058;2022-10-23T00:12:14;5.60;;;4.80;;
10041;SDS011;5061;49.068;12.058;2022-10-23T00:15:35;4.97;;;4.47;;
10041;SDS011;5061;49.068;12.058;2022-10-23T00:18:56;5.70;;;4.70;;
10041;SDS011;5061;49.068;12.058;2022-10-23T00:22:18;5.43;;;4.93;;
10041;SDS011;5061;49.068;12.058;2022-10-23T00:25:39;6.03;;;3.80;;
10041;SDS011;5061;49.068;12.058;2022-10-23T00:29:00;4.63;;;4.23;;
10041;SDS011;5061;49.068;12.058;2022-10-23T00:32:20;4.70;;;4.27;;
10041;SDS011;5061;49.068;12.058;2022-10-23T00:35:43;5.50;;;5.00;;
10041;SDS011;5061;49.068;12.058;2022-10-23T00:39:05;6.93;;;5.00;;
10041;SDS011;5061;49.068;12.058;2022-10-23T00:42:26;5.80;;;5.10;;
10041;SDS011;5061;49.068;12.058;2022-10-23T00:45:47;4.57;;;4.13;;
10041;SDS011;5061;49.068;12.058;2022-10-23T00:49:09;5.17;;;4.67;;
10041;SDS011;5061;49.068;12.058;2022-10-23T00:52:30;5.40;;;4.90;;
10041;SDS011;5061;49.068;12.058;2022-10-23T00:55:52;5.30;;;4.60;;
10041;SDS011;5061;49.068;12.058;2022-10-23T00:59:14;4.93;;;4.43;;
10041;SDS011;5061;49.068;12.058;2022-10-23T01:02:35;5.80;;;5.07;;
10041;SDS011;5061;49.068;12.058;2022-10-23T01:05:59;5.03;;;4.53;;
10041;SDS011;5061;49.068;12.058;2022-10-23T01:09:33;4.83;;;4.33;;
10041;SDS011;5061;49.068;12.058;2022-10-23T01:20:31;4.40;;;4.00;;
10041;SDS011;5061;49.068;12.058;2022-10-23T01:27:58;4.93;;;4.43;;
10041;SDS011;5061;49.068;12.058;2022-10-23T01:31:31;3.00;;;2.80;;
10041;SDS011;5061;49.068;12.058;2022-10-23T01:38:49;3.33;;;3.03;;
10041;SDS011;5061;49.068;12.058;2022-10-23T01:42:23;4.30;;;3.80;;
10041;SDS011;5061;49.068;12.058;2022-10-23T01:45:53;4.13;;;3.73;;
10041;SDS011;5061;49.068;12.058;2022-10-23T01:49:18;3.90;;;3.50;;
10041;SDS011;5061;49.068;12.058;2022-10-23T01:52:42;3.47;;;3.17;;
10041;SDS011;5061;49.068;12.058;2022-10-23T01:56:02;4.10;;;3.70;;
10041;SDS011;5061;49.068;12.058;2022-10-23T01:59:32;5.57;;;4.73;;
10041;SDS011;5061;49.068;12.058;2022-10-23T02:02:57;4.47;;;4.03;;
10041;SDS011;5061;49.068;12.058;2022-10-23T02:06:23;4.90;;;4.40;;
10041;SDS011;5061;49.068;12.058;2022-10-23T02:09:44;6.20;;;4.90;;
10041;SDS011;5061;49.068;12.058;2022-10-23T02:13:06;5.20;;;4.70;;
10041;SDS011;5061;49.068;12.058;2022-10-23T02:16:39;5.00;;;4.50;;
10041;SDS011;5061;49.068;12.058;2022-10-23T02:24:02;3.40;;;3.10;;
10041;SDS011;5061;49.068;12.058;2022-10-23T02:27:36;2.90;;;2.47;;
10041;SDS011;5061;49.068;12.058;2022-10-23T02:31:01;3.20;;;2.90;;
10041;SDS011;5061;49.068;12.058;2022-10-23T02:34:25;3.13;;;2.83;;
10041;SDS011;5061;49.068;12.058;2022-10-23T02:37:53;3.80;;;3.50;;
10041;SDS011;5061;49.068;12.058;2022-10-23T02:48:36;3.30;;;3.00;;
10041;SDS011;5061;49.068;12.058;2022-10-23T02:52:24;2.83;;;2.63;;
10041;SDS011;5061;49.068;12.058;2022-10-23T02:56:58;3.17;;;2.70;;
10041;SDS011;5061;49.068;12.058;2022-10-23T03:00:16;2.90;;;2.70;;
10041;SDS011;5061;49.068;12.058;2022-10-23T03:03:47;2.73;;;2.53;;
10041;SDS011;5061;49.068;12.058;2022-10-23T03:07:15;3.23;;;2.93;;
10041;SDS011;5061;49.068;12.058;2022-10-23T03:10:41;3.60;;;3.23;;
10041;SDS011;5061;49.068;12.058;2022-10-23T03:14:02;3.37;;;3.07;;
10041;SDS011;5061;49.068;12.058;2022-10-23T03:17:22;3.23;;;2.93;;
10041;SDS011;5061;49.068;12.058;2022-10-23T03:20:44;4.50;;;3.90;;
10041;SDS011;5061;49.068;12.058;2022-10-23T03:24:05;3.40;;;3.10;;
10041;SDS011;5061;49.068;12.058;2022-10-23T03:27:31;3.57;;;3.27;;
10041;SDS011;5061;49.068;12.058;2022-10-23T03:30:54;3.40;;;3.10;;
10041;SDS011;5061;49.068;12.058;2022-10-23T03:34:15;3.90;;;3.10;;
10041;SDS011;5061;49.068;12.058;2022-10-23T03:37:42;3.37;;;2.57;;
10041;SDS011;5061;49.068;12.058;2022-10-23T03:41:05;4.20;;;3.67;;
10041;SDS011;5061;49.068;12.058;2022-10-23T03:44:25;4.47;;;3.70;;
10041;SDS011;5061;49.068;12.058;2022-10-23T03:47:50;4.40;;;3.80;;
10041;SDS011;5061;49.068;12.058;2022-10-23T03:51:10;4.27;;;3.33;;
10041;SDS011;5061;49.068;12.058;2022-10-23T03:54:32;4.63;;;4.17;;
10041;SDS011;5061;49.068;12.058;2022-10-23T03:57:54;4.53;;;3.93;;
10041;SDS011;5061;49.068;12.058;2022-10-23T04:01:15;4.00;;;3.40;;
10041;SDS011;5061;49.068;12.058;2022-10-23T04:04:36;3.80;;;3.40;;
10041;SDS011;5061;49.068;12.058;2022-10-23T04:07:56;4.87;;;3.87;;
10041;SDS011;5061;49.068;12.058;2022-10-23T04:11:17;4.60;;;3.50;;
10041;SDS011;5061;49.068;12.058;2022-10-23T04:14:38;3.30;;;3.00;;
10041;SDS011;5061;49.068;12.058;2022-10-23T04:17:58;3.83;;;3.43;;
10041;SDS011;5061;49.068;12.058;2022-10-23T04:21:19;2.90;;;2.60;;
10041;SDS011;5061;49.068;12.058;2022-10-23T04:24:40;3.60;;;3.10;;
10041;SDS011;5061;49.068;12.058;2022-10-23T04:28:08;3.50;;;3.20;;
10041;SDS011;5061;49.068;12.058;2022-10-23T04:31:29;3.23;;;2.93;;
10041;SDS011;5061;49.068;12.058;2022-10-23T04:34:49;3.00;;;2.70;;
10041;SDS011;5061;49.068;12.058;2022-10-23T04:38:10;4.33;;;3.50;;
10041;SDS011;5061;49.068;12.058;2022-10-23T04:41:30;3.77;;;3.20;;
10041;SDS011;5061;49.068;12.058;2022-10-23T04:44:51;4.90;;;4.00;;
10041;SDS011;5061;49.068;12.058;2022-10-23T04:48:12;4.80;;;3.43;;
10041;SDS011;5061;49.068;12.058;2022-10-23T04:51:36;3.43;;;3.10;;
10041;SDS011;5061;49.068;12.058;2022-10-23T04:54:58;4.53;;;3.37;;
10041;SDS011;5061;49.068;12.058;2022-10-23T04:58:19;5.73;;;5.10;;
10041;SDS011;5061;49.068;12.058;2022-10-23T05:01:42;6.80;;;4.67;;
10041;SDS011;5061;49.068;12.058;2022-10-23T05:05:03;8.00;;;5.60;;
10041;SDS011;5061;49.068;12.058;2022-10-23T05:08:24;5.20;;;4.57;;
10041;SDS011;5061;49.068;12.058;2022-10-23T05:11:51;5.27;;;4.77;;
10041;SDS011;5061;49.068;12.058;2022-10-23T05:15:11;5.30;;;4.40;;
10041;SDS011;5061;49.068;12.058;2022-10-23T05:18:34;4.63;;;3.80;;
10041;SDS011;5061;49.068;12.058;2022-10-23T05:21:59;4.37;;;3.97;;
10041;SDS011;5061;49.068;12.058;2022-10-23T05:25:22;2.73;;;2.50;;
10041;SDS011;5061;49.068;12.058;2022-10-23T05:28:43;3.23;;;2.93;;
10041;SDS011;5061;49.068;12.058;2022-10-23T05:32:10;3.13;;;2.83;;
10041;SDS011;5061;49.068;12.058;2022-10-23T05:35:37;2.83;;;2.43;;
10041;SDS011;5061;49.068;12.058;2022-10-23T05:39:01;3.27;;;2.97;;
10041;SDS011;5061;49.068;12.058;2022-10-23T05:42:24;3.70;;;3.23;;
10041;SDS011;5061;49.068;12.058;2022-10-23T05:45:47;4.00;;;3.57;;
10041;SDS011;5061;49.068;12.058;2022-10-23T05:49:10;3.37;;;3.03;;
10041;SDS011;5061;49.068;12.058;2022-10-23T05:52:30;2.53;;;2.33;;
10041;SDS011;5061;49.068;12.058;2022-10-23T05:55:51;3.30;;;3.00;;
10041;SDS011;5061;49.068;12.058;2022-10-23T05:59:15;3.13;;;2.83;;
10041;SDS011;5061;49.068;12.058;2022-10-23T06:02:39;3.63;;;3.20;;
10041;SDS011;5061;49.068;12.058;2022-10-23T06:06:00;4.23;;;3.60;;
10041;SDS011;5061;49.068;12.058;2022-10-23T06:09:27;4.90;;;3.80;;
10041;SDS011;5061;49.068;12.058;2022-10-23T06:12:49;4.60;;;3.83;;
10041;SDS011;5061;49.068;12.058;2022-10-23T06:16:17;3.63;;;3.30;;
10041;SDS011;5061;49.068;12.058;2022-10-23T06:19:48;3.80;;;3.40;;
10041;SDS011;5061;49.068;12.058;2022-10-23T06:23:08;4.43;;;3.63;;
10041;SDS011;5061;49.068;12.058;2022-10-23T06:26:35;4.10;;;3.70;;
10041;SDS011;5061;49.068;12.058;2022-10-23T06:29:56;3.93;;;3.40;;
10041;SDS011;5061;49.068;12.058;2022-10-23T06:33:22;5.40;;;4.80;;
10041;SDS011;5061;49.068;12.058;2022-10-23T06:36:44;5.13;;;4.63;;
10041;SDS011;5061;49.068;12.058;2022-10-23T06:40:05;4.77;;;4.27;;
10041;SDS011;5061;49.068;12.058;2022-10-23T06:43:28;3.80;;;3.43;;
10041;SDS011;5061;49.068;12.058;2022-10-23T06:46:49;4.00;;;3.60;;
10041;SDS011;5061;49.068;12.058;2022-10-23T06:50:10;3.77;;;3.03;;
10041;SDS011;5061;49.068;12.058;2022-10-23T06:53:33;4.87;;;3.97;;
10041;SDS011;5061;49.068;12.058;2022-10-23T06:56:54;5.87;;;4.87;;
10041;SDS011;5061;49.068;12.058;2022-10-23T07:00:15;4.80;;;3.93;;
10041;SDS011;5061;49.068;12.058;2022-10-23T07:03:36;5.87;;;4.93;;
10041;SDS011;5061;49.068;12.058;2022-10-23T07:06:57;5.70;;;4.50;;
10041;SDS011;5061;49.068;12.058;2022-10-23T07:10:18;8.07;;;6.50;;
10041;SDS011;5061;49.068;12.058;2022-10-23T07:13:38;4.97;;;4.50;;
10041;SDS011;5061;49.068;12.058;2022-10-23T07:16:59;7.57;;;5.97;;
10041;SDS011;5061;49.068;12.058;2022-10-23T07:20:20;5.73;;;4.50;;
10041;SDS011;5061;49.068;12.058;2022-10-23T07:23:41;6.20;;;5.20;;
10041;SDS011;5061;49.068;12.058;2022-10-23T07:27:03;5.43;;;4.50;;
10041;SDS011;5061;49.068;12.058;2022-10-23T07:30:24;4.90;;;4.13;;
10041;SDS011;5061;49.068;12.058;2022-10-23T07:33:44;4.83;;;4.33;;
10041;SDS011;5061;49.068;12.058;2022-10-23T07:37:05;6.40;;;5.20;;
10041;SDS011;5061;49.068;12.058;2022-10-23T07:40:25;6.67;;;5.40;;
10041;SDS011;5061;49.068;12.058;2022-10-23T07:43:46;6.80;;;5.07;;
10041;SDS011;5061;49.068;12.058;2022-10-23T07:47:07;4.93;;;4.43;;
10041;SDS011;5061;49.068;12.058;2022-10-23T07:50:28;7.50;;;5.53;;
10041;SDS011;5061;49.068;12.058;2022-10-23T07:53:49;7.17;;;5.53;;
10041;SDS011;5061;49.068;12.058;2022-10-23T07:57:09;7.40;;;5.57;;
10041;SDS011;5061;49.068;12.058;2022-10-23T08:00:31;6.70;;;5.00;;
10041;SDS011;5061;49.068;12.058;2022-10-23T08:03:51;7.20;;;5.77;;
10041;SDS011;5061;49.068;12.058;2022-10-23T08:07:12;6.20;;;5.43;;
10041;SDS011;5061;49.068;12.058;2022-10-23T08:10:32;5.13;;;4.50;;
10041;SDS011;5061;49.068;12.058;2022-10-23T08:13:53;7.13;;;5.80;;
10041;SDS011;5061;49.068;12.058;2022-10-23T08:17:15;6.00;;;5.10;;
10041;SDS011;5061;49.068;12.058;2022-10-23T08:20:39;5.80;;;5.20;;
10041;SDS011;5061;49.068;12.058;2022-10-23T08:24:01;4.50;;;3.53;;
10041;SDS011;5061;49.068;12.058;2022-10-23T08:27:22;4.40;;;3.77;;
10041;SDS011;5061;49.068;12.058;2022-10-23T08:30:43;4.47;;;3.40;;
10041;SDS011;5061;49.068;12.058;2022-10-23T08:34:03;5.17;;;3.87;;
10041;SDS011;5061;49.068;12.058;2022-10-23T08:37:24;4.53;;;3.70;;
10041;SDS011;5061;49.068;12.058;2022-10-23T08:40:45;4.30;;;3.90;;
10041;SDS011;5061;49.068;12.058;2022-10-23T08:47:39;4.07;;;3.67;;
10041;SDS011;5061;49.068;12.058;2022-10-23T08:51:12;4.23;;;3.83;;
10041;SDS011;5061;49.068;12.058;2022-10-23T08:58:44;3.50;;;3.20;;
10041;SDS011;5061;49.068;12.058;2022-10-23T09:17:27;4.40;;;4.00;;
10041;SDS011;5061;49.068;12.058;2022-10-23T09:20:48;5.87;;;4.27;;
10041;SDS011;5061;49.068;12.058;2022-10-23T09:24:15;5.50;;;4.27;;
10041;SDS011;5061;49.068;12.058;2022-10-23T09:27:39;5.47;;;4.33;;
10041;SDS011;5061;49.068;12.058;2022-10-23T09:31:10;6.73;;;5.10;;
10041;SDS011;5061;49.068;12.058;2022-10-23T09:34:32;5.10;;;4.60;;
10041;SDS011;5061;49.068;12.058;2022-10-23T09:37:54;5.00;;;4.50;;
10041;SDS011;5061;49.068;12.058;2022-10-23T09:41:19;6.10;;;4.27;;
10041;SDS011;5061;49.068;12.058;2022-10-23T09:44:50;3.70;;;3.30;;
10041;SDS011;5061;49.068;12.058;2022-10-23T09:48:18;4.63;;;3.90;;
10041;SDS011;5061;49.068;12.058;2022-10-23T09:51:39;4.27;;;3.60;;
10041;SDS011;5061;49.068;12.058;2022-10-23T09:55:03;5.40;;;4.37;;
10041;SDS011;5061;49.068;12.058;2022-10-23T09:58:50;6.97;;;4.70;;
10041;SDS011;5061;49.068;12.058;2022-10-23T10:05:57;4.00;;;3.53;;
10041;SDS011;5061;49.068;12.058;2022-10-23T10:09:22;7.60;;;4.83;;
10041;SDS011;5061;49.068;12.058;2022-10-23T10:12:48;8.10;;;5.20;;
10041;SDS011;5061;49.068;12.058;2022-10-23T10:41:01;10.30;;;5.70;;
10041;SDS011;5061;49.068;12.058;2022-10-23T10:59:01;9.77;;;6.43;;
10041;SDS011;5061;49.068;12.058;2022-10-23T11:02:27;8.63;;;5.40;;
10041;SDS011;5061;49.068;12.058;2022-10-23T11:06:05;10.03;;;5.83;;
10041;SDS011;5061;49.068;12.058;2022-10-23T11:09:34;10.63;;;6.40;;
10041;SDS011;5061;49.068;12.058;2022-10-23T11:12:54;11.97;;;7.30;;
10041;SDS011;5061;49.068;12.058;2022-10-23T11:16:17;9.70;;;6.63;;
10041;SDS011;5061;49.068;12.058;2022-10-23T11:19:47;9.20;;;6.27;;
10041;SDS011;5061;49.068;12.058;2022-10-23T11:23:38;12.00;;;7.10;;
10041;SDS011;5061;49.068;12.058;2022-10-23T11:41:48;6.53;;;5.30;;
10041;SDS011;5061;49.068;12.058;2022-10-23T11:45:35;7.53;;;5.30;;
10041;SDS011;5061;49.068;12.058;2022-10-23T11:48:58;5.93;;;4.17;;
10041;SDS011;5061;49.068;12.058;2022-10-23T11:52:22;7.50;;;4.33;;
10041;SDS011;5061;49.068;12.058;2022-10-23T12:03:18;8.73;;;6.50;;
10041;SDS011;5061;49.068;12.058;2022-10-23T12:06:59;9.83;;;7.20;;
10041;SDS011;5061;49.068;12.058;2022-10-23T12:10:29;10.70;;;6.70;;
10041;SDS011;5061;49.068;12.058;2022-10-23T12:13:54;9.93;;;6.37;;
10041;SDS011;5061;49.068;12.058;2022-10-23T12:24:25;8.10;;;5.60;;
10041;SDS011;5061;49.068;12.058;2022-10-23T12:27:59;6.50;;;4.73;;
10041;SDS011;5061;49.068;12.058;2022-10-23T12:31:35;11.40;;;6.50;;
10041;SDS011;5061;49.068;12.058;2022-10-23T12:38:45;6.73;;;5.37;;
10041;SDS011;5061;49.068;12.058;2022-10-23T12:42:19;5.80;;;4.43;;
10041;SDS011;5061;49.068;12.058;2022-10-23T12:45:45;6.40;;;4.90;;
10041;SDS011;5061;49.068;12.058;2022-10-23T12:49:16;7.40;;;5.00;;
10041;SDS011;5061;49.068;12.058;2022-10-23T12:52:38;6.50;;;4.70;;
10041;SDS011;5061;49.068;12.058;2022-10-23T12:56:00;5.10;;;4.60;;
10041;SDS011;5061;49.068;12.058;2022-10-23T12:59:30;6.20;;;4.60;;
10041;SDS011;5061;49.068;12.058;2022-10-23T13:02:56;8.63;;;4.87;;
10041;SDS011;5061;49.068;12.058;2022-10-23T13:06:22;6.37;;;4.53;;
10041;SDS011;5061;49.068;12.058;2022-10-23T13:09:44;9.60;;;5.50;;
10041;SDS011;5061;49.068;12.058;2022-10-23T13:13:05;8.83;;;6.33;;
10041;SDS011;5061;49.068;12.058;2022-10-23T13:16:27;9.20;;;6.73;;
10041;SDS011;5061;49.068;12.058;2022-10-23T13:19:47;12.00;;;5.90;;
10041;SDS011;5061;49.068;12.058;2022-10-23T13:26:55;6.70;;;5.50;;
10041;SDS011;5061;49.068;12.058;2022-10-23T13:30:27;6.10;;;4.60;;
10041;SDS011;5061;49.068;12.058;2022-10-23T13:37:23;6.30;;;4.80;;
10041;SDS011;5061;49.068;12.058;2022-10-23T13:40:53;5.90;;;4.53;;
10041;SDS011;5061;49.068;12.058;2022-10-23T13:44:16;6.33;;;4.27;;
10041;SDS011;5061;49.068;12.058;2022-10-23T13:47:41;6.27;;;4.47;;
10041;SDS011;5061;49.068;12.058;2022-10-23T13:51:09;4.43;;;4.03;;
10041;SDS011;5061;49.068;12.058;2022-10-23T13:54:35;4.70;;;3.60;;
10041;SDS011;5061;49.068;12.058;2022-10-23T13:57:55;5.40;;;4.07;;
10041;SDS011;5061;49.068;12.058;2022-10-23T14:01:20;3.47;;;3.10;;
10041;SDS011;5061;49.068;12.058;2022-10-23T14:04:49;6.40;;;4.37;;
10041;SDS011;5061;49.068;12.058;2022-10-23T14:08:10;3.23;;;2.83;;
10041;SDS011;5061;49.068;12.058;2022-10-23T14:11:31;4.70;;;3.50;;
10041;SDS011;5061;49.068;12.058;2022-10-23T14:14:52;3.30;;;3.00;;
10041;SDS011;5061;49.068;12.058;2022-10-23T14:18:13;3.73;;;2.77;;
10041;SDS011;5061;49.068;12.058;2022-10-23T14:21:33;4.60;;;3.27;;
10041;SDS011;5061;49.068;12.058;2022-10-23T14:24:54;3.17;;;2.87;;
10041;SDS011;5061;49.068;12.058;2022-10-23T14:28:14;3.77;;;3.27;;
10041;SDS011;5061;49.068;12.058;2022-10-23T14:31:35;3.30;;;2.70;;
10041;SDS011;5061;49.068;12.058;2022-10-23T14:34:56;4.37;;;2.97;;
10041;SDS011;5061;49.068;12.058;2022-10-23T14:38:16;2.70;;;2.30;;
10041;SDS011;5061;49.068;12.058;2022-10-23T14:41:38;3.10;;;2.80;;
10041;SDS011;5061;49.068;12.058;2022-10-23T14:45:00;2.20;;;2.00;;
10041;SDS011;5061;49.068;12.058;2022-10-23T14:48:24;2.40;;;2.10;;
10041;SDS011;5061;49.068;12.058;2022-10-23T14:51:45;2.03;;;1.83;;
10041;SDS011;5061;49.068;12.058;2022-10-23T14:55:06;2.30;;;2.10;;
10041;SDS011;5061;49.068;12.058;2022-10-23T14:58:27;2.43;;;2.23;;
10041;SDS011;5061;49.068;12.058;2022-10-23T15:01:48;2.83;;;2.20;;
10041;SDS011;5061;49.068;12.058;2022-10-23T15:05:09;2.73;;;2.53;;
10041;SDS011;5061;49.068;12.058;2022-10-23T15:08:32;2.57;;;2.07;;
10041;SDS011;5061;49.068;12.058;2022-10-23T15:11:53;2.60;;;2.40;;
10041;SDS011;5061;49.068;12.058;2022-10-23T15:15:15;1.87;;;1.77;;
10041;SDS011;5061;49.068;12.058;2022-10-23T15:18:36;4.27;;;2.93;;
10041;SDS011;5061;49.068;12.058;2022-10-23T15:21:57;3.57;;;3.00;;
10041;SDS011;5061;49.068;12.058;2022-10-23T15:25:21;2.93;;;2.63;;
10041;SDS011;5061;49.068;12.058;2022-10-23T15:28:43;4.23;;;3.07;;
10041;SDS011;5061;49.068;12.058;2022-10-23T15:32:03;2.70;;;2.03;;
10041;SDS011;5061;49.068;12.058;2022-10-23T15:35:24;3.50;;;2.40;;
10041;SDS011;5061;49.068;12.058;2022-10-23T15:38:47;2.70;;;2.20;;
10041;SDS011;5061;49.068;12.058;2022-10-23T15:42:11;2.60;;;2.13;;
10041;SDS011;5061;49.068;12.058;2022-10-23T15:45:32;2.83;;;2.43;;
10041;SDS011;5061;49.068;12.058;2022-10-23T15:48:53;2.27;;;2.07;;
10041;SDS011;5061;49.068;12.058;2022-10-23T15:52:14;2.07;;;1.87;;
10041;SDS011;5061;49.068;12.058;2022-10-23T15:55:35;2.23;;;2.03;;
10041;SDS011;5061;49.068;12.058;2022-10-23T15:58:56;3.37;;;2.80;;
10041;SDS011;5061;49.068;12.058;2022-10-23T16:02:17;4.97;;;3.73;;
10041;SDS011;5061;49.068;12.058;2022-10-23T16:05:37;7.43;;;4.33;;
10041;SDS011;5061;49.068;12.058;2022-10-23T16:08:58;6.40;;;4.10;;
10041;SDS011;5061;49.068;12.058;2022-10-23T16:12:19;5.40;;;4.37;;
10041;SDS011;5061;49.068;12.058;2022-10-23T16:15:42;4.90;;;4.17;;
10041;SDS011;5061;49.068;12.058;2022-10-23T16:19:02;4.27;;;3.40;;
10041;SDS011;5061;49.068;12.058;2022-10-23T16:22:24;3.07;;;2.77;;
10041;SDS011;5061;49.068;12.058;2022-10-23T16:25:44;3.30;;;2.13;;
10041;SDS011;5061;49.068;12.058;2022-10-23T16:29:05;3.40;;;2.60;;
10041;SDS011;5061;49.068;12.058;2022-10-23T16:32:27;2.77;;;2.40;;
10041;SDS011;5061;49.068;12.058;2022-10-23T16:35:48;2.73;;;2.20;;
10041;SDS011;5061;49.068;12.058;2022-10-23T16:39:08;1.80;;;1.70;;
10041;SDS011;5061;49.068;12.058;2022-10-23T16:42:30;2.63;;;1.90;;
10041;SDS011;5061;49.068;12.058;2022-10-23T16:46:05;3.50;;;3.13;;
10041;SDS011;5061;49.068;12.058;2022-10-23T16:49:27;3.07;;;2.30;;
10041;SDS011;5061;49.068;12.058;2022-10-23T16:52:49;3.10;;;2.37;;
10041;SDS011;5061;49.068;12.058;2022-10-23T16:56:11;2.60;;;2.40;;
10041;SDS011;5061;49.068;12.058;2022-10-23T16:59:33;1.77;;;1.67;;
10041;SDS011;5061;49.068;12.058;2022-10-23T17:02:54;2.37;;;2.10;;
10041;SDS011;5061;49.068;12.058;2022-10-23T17:06:21;3.17;;;2.40;;
10041;SDS011;5061;49.068;12.058;2022-10-23T17:09:47;2.57;;;2.37;;
10041;SDS011;5061;49.068;12.058;2022-10-23T17:13:08;2.13;;;1.93;;
10041;SDS011;5061;49.068;12.058;2022-10-23T17:20:08;3.67;;;2.70;;
10041;SDS011;5061;49.068;12.058;2022-10-23T17:23:29;5.00;;;3.77;;
10041;SDS011;5061;49.068;12.058;2022-10-23T17:26:51;5.47;;;4.23;;
10041;SDS011;5061;49.068;12.058;2022-10-23T17:30:13;4.70;;;3.80;;
10041;SDS011;5061;49.068;12.058;2022-10-23T17:33:33;6.03;;;3.30;;
10041;SDS011;5061;49.068;12.058;2022-10-23T17:36:54;2.83;;;2.50;;
10041;SDS011;5061;49.068;12.058;2022-10-23T17:40:15;5.10;;;2.50;;
10041;SDS011;5061;49.068;12.058;2022-10-23T17:43:36;2.93;;;2.67;;
10041;SDS011;5061;49.068;12.058;2022-10-23T17:46:57;2.50;;;2.30;;
10041;SDS011;5061;49.068;12.058;2022-10-23T17:50:17;2.57;;;2.37;;
10041;SDS011;5061;49.068;12.058;2022-10-23T17:53:39;3.00;;;2.70;;
10041;SDS011;5061;49.068;12.058;2022-10-23T17:57:00;3.30;;;3.00;;
10041;SDS011;5061;49.068;12.058;2022-10-23T18:00:21;5.03;;;3.50;;
10041;SDS011;5061;49.068;12.058;2022-10-23T18:03:42;8.70;;;3.80;;
10041;SDS011;5061;49.068;12.058;2022-10-23T18:07:03;5.97;;;4.23;;
10041;SDS011;5061;49.068;12.058;2022-10-23T18:10:23;5.43;;;3.97;;
10041;SDS011;5061;49.068;12.058;2022-10-23T18:13:44;4.43;;;3.63;;
10041;SDS011;5061;49.068;12.058;2022-10-23T18:17:05;6.77;;;3.83;;
10041;SDS011;5061;49.068;12.058;2022-10-23T18:20:29;3.03;;;2.73;;
10041;SDS011;5061;49.068;12.058;2022-10-23T18:23:50;3.43;;;2.60;;
10041;SDS011;5061;49.068;12.058;2022-10-23T18:27:11;4.83;;;3.10;;
10041;SDS011;5061;49.068;12.058;2022-10-23T18:30:34;6.00;;;4.50;;
10041;SDS011;5061;49.068;12.058;2022-10-23T18:33:59;3.67;;;3.10;;
10041;SDS011;5061;49.068;12.058;2022-10-23T18:37:23;4.57;;;3.30;;
10041;SDS011;5061;49.068;12.058;2022-10-23T18:40:46;3.77;;;3.13;;
10041;SDS011;5061;49.068;12.058;2022-10-23T18:44:14;4.97;;;3.57;;
10041;SDS011;5061;49.068;12.058;2022-10-23T18:47:36;5.00;;;3.40;;
10041;SDS011;5061;49.068;12.058;2022-10-23T18:50:58;5.03;;;3.47;;
10041;SDS011;5061;49.068;12.058;2022-10-23T18:54:19;6.60;;;4.00;;
10041;SDS011;5061;49.068;12.058;2022-10-23T18:57:41;4.30;;;3.00;;
10041;SDS011;5061;49.068;12.058;2022-10-23T19:01:02;3.70;;;3.33;;
10041;SDS011;5061;49.068;12.058;2022-10-23T19:04:23;3.77;;;2.87;;
10041;SDS011;5061;49.068;12.058;2022-10-23T19:07:44;2.93;;;2.60;;
10041;SDS011;5061;49.068;12.058;2022-10-23T19:11:05;3.13;;;2.70;;
10041;SDS011;5061;49.068;12.058;2022-10-23T19:14:27;3.97;;;2.83;;
10041;SDS011;5061;49.068;12.058;2022-10-23T19:17:48;2.60;;;2.07;;
10041;SDS011;5061;49.068;12.058;2022-10-23T19:21:09;2.80;;;2.30;;
10041;SDS011;5061;49.068;12.058;2022-10-23T19:24:32;4.60;;;3.33;;
10041;SDS011;5061;49.068;12.058;2022-10-23T19:27:58;3.33;;;2.73;;
10041;SDS011;5061;49.068;12.058;2022-10-23T19:31:20;3.40;;;2.37;;
10041;SDS011;5061;49.068;12.058;2022-10-23T19:34:42;3.43;;;2.50;;
10041;SDS011;5061;49.068;12.058;2022-10-23T19:38:03;2.50;;;2.30;;
10041;SDS011;5061;49.068;12.058;2022-10-23T19:41:23;2.73;;;2.10;;
10041;SDS011;5061;49.068;12.058;2022-10-23T19:44:44;4.20;;;2.63;;
10041;SDS011;5061;49.068;12.058;2022-10-23T19:48:05;5.80;;;2.77;;
10041;SDS011;5061;49.068;12.058;2022-10-23T19:51:26;3.90;;;2.97;;
10041;SDS011;5061;49.068;12.058;2022-10-23T19:54:48;3.17;;;2.70;;
10041;SDS011;5061;49.068;12.058;2022-10-23T19:58:09;3.07;;;2.40;;
10041;SDS011;5061;49.068;12.058;2022-10-23T20:01:30;3.37;;;2.77;;
10041;SDS011;5061;49.068;12.058;2022-10-23T20:04:51;2.97;;;2.60;;
10041;SDS011;5061;49.068;12.058;2022-10-23T20:08:12;2.87;;;2.50;;
10041;SDS011;5061;49.068;12.058;2022-10-23T20:11:33;3.17;;;1.93;;
10041;SDS011;5061;49.068;12.058;2022-10-23T20:14:55;2.80;;;2.60;;
10041;SDS011;5061;49.068;12.058;2022-10-23T20:18:16;3.17;;;2.40;;
10041;SDS011;5061;49.068;12.058;2022-10-23T20:21:37;2.87;;;2.60;;
10041;SDS011;5061;49.068;12.058;2022-10-23T20:24:58;2.80;;;2.33;;
10041;SDS011;5061;49.068;12.058;2022-10-23T20:28:19;2.97;;;2.50;;
10041;SDS011;5061;49.068;12.058;2022-10-23T20:31:40;3.10;;;2.60;;
10041;SDS011;5061;49.068;12.058;2022-10-23T20:35:02;3.80;;;3.07;;
10041;SDS011;5061;49.068;12.058;2022-10-23T20:38:25;3.30;;;2.60;;
10041;SDS011;5061;49.068;12.058;2022-10-23T20:41:47;2.93;;;2.30;;
10041;SDS011;5061;49.068;12.058;2022-10-23T20:45:08;3.13;;;2.03;;
10041;SDS011;5061;49.068;12.058;2022-10-23T20:48:29;3.60;;;2.60;;
10041;SDS011;5061;49.068;12.058;2022-10-23T20:51:54;4.80;;;2.97;;
10041;SDS011;5061;49.068;12.058;2022-10-23T20:55:16;2.80;;;2.50;;
10041;SDS011;5061;49.068;12.058;2022-10-23T20:58:38;4.10;;;2.47;;
10041;SDS011;5061;49.068;12.058;2022-10-23T21:01:59;2.87;;;2.40;;
10041;SDS011;5061;49.068;12.058;2022-10-23T21:05:20;2.37;;;2.17;;
10041;SDS011;5061;49.068;12.058;2022-10-23T21:08:40;2.20;;;2.00;;
10041;SDS011;5061;49.068;12.058;2022-10-23T21:12:01;3.90;;;2.53;;
10041;SDS011;5061;49.068;12.058;2022-10-23T21:15:22;3.50;;;2.70;;
10041;SDS011;5061;49.068;12.058;2022-10-23T21:18:42;4.50;;;2.80;;
10041;SDS011;5061;49.068;12.058;2022-10-23T21:22:03;5.90;;;3.33;;
10041;SDS011;5061;49.068;12.058;2022-10-23T21:25:24;4.47;;;2.70;;
10041;SDS011;5061;49.068;12.058;2022-10-23T21:28:45;4.30;;;2.90;;
10041;SDS011;5061;49.068;12.058;2022-10-23T21:32:07;2.83;;;2.50;;
10041;SDS011;5061;49.068;12.058;2022-10-23T21:35:27;2.93;;;2.63;;
10041;SDS011;5061;49.068;12.058;2022-10-23T21:38:52;2.60;;;2.40;;
10041;SDS011;5061;49.068;12.058;2022-10-23T21:42:15;3.77;;;3.17;;
10041;SDS011;5061;49.068;12.058;2022-10-23T21:45:35;3.37;;;3.00;;
10041;SDS011;5061;49.068;12.058;2022-10-23T21:48:59;2.33;;;1.83;;
10041;SDS011;5061;49.068;12.058;2022-10-23T21:52:21;2.33;;;2.00;;
10041;SDS011;5061;49.068;12.058;2022-10-23T21:55:42;2.10;;;1.90;;
10041;SDS011;5061;49.068;12.058;2022-10-23T21:59:03;3.03;;;2.20;;
10041;SDS011;5061;49.068;12.058;2022-10-23T22:02:25;2.67;;;2.37;;
10041;SDS011;5061;49.068;12.058;2022-10-23T22:05:46;2.73;;;2.20;;
10041;SDS011;5061;49.068;12.058;2022-10-23T22:09:07;4.93;;;2.80;;
10041;SDS011;5061;49.068;12.058;2022-10-23T22:12:28;2.17;;;1.93;;
10041;SDS011;5061;49.068;12.058;2022-10-23T22:15:49;3.00;;;2.10;;
10041;SDS011;5061;49.068;12.058;2022-10-23T22:19:10;2.57;;;2.10;;
10041;SDS011;5061;49.068;12.058;2022-10-23T22:22:33;2.20;;;2.00;;
10041;SDS011;5061;49.068;12.058;2022-10-23T22:25:56;2.27;;;2.07;;
10041;SDS011;5061;49.068;12.058;2022-10-23T22:29:24;2.00;;;1.80;;
10041;SDS011;5061;49.068;12.058;2022-10-23T22:32:47;2.77;;;2.20;;
10041;SDS011;5061;49.068;12.058;2022-10-23T22:36:11;1.53;;;1.43;;
10041;SDS011;5061;49.068;12.058;2022-10-23T22:39:35;2.40;;;2.03;;
10041;SDS011;5061;49.068;12.058;2022-10-23T22:42:58;2.10;;;1.80;;